sensor_id;sensor_type;location;lat;lon;timestamp;P1;durP1;ratioP1;P2;durP2;ratioP2
48765;SDS011;34570;51.836;5.002;2022-09-02T00:01:02;2.08;;;0.80;;
48765;SDS011;34570;51.836;5.002;2022-09-02T00:03:29;1.67;;;0.80;;
48765;SDS011;34570;51.836;5.002;2022-09-02T00:05:55;3.90;;;0.90;;
48765;SDS011;34570;51.836;5.002;2022-09-02T00:08:21;2.63;;;0.80;;
48765;SDS011;34570;51.836;5.002;2022-09-02T00:10:46;3.63;;;0.93;;
48765;SDS011;34570;51.836;5.002;2022-09-02T00:13:13;1.50;;;0.70;;
48765;SDS011;34570;51.836;5.002;2022-09-02T00:15:39;3.67;;;0.95;;
48765;SDS011;34570;51.836;5.002;2022-09-02T00:18:05;1.95;;;0.70;;
48765;SDS011;34570;51.836;5.002;2022-09-02T00:20:32;1.55;;;0.77;;
48765;SDS011;34570;51.836;5.002;2022-09-02T00:22:57;1.77;;;0.90;;
48765;SDS011;34570;51.836;5.002;2022-09-02T00:25:23;3.60;;;0.80;;
48765;SDS011;34570;51.836;5.002;2022-09-02T00:27:49;1.50;;;0.70;;
48765;SDS011;34570;51.836;5.002;2022-09-02T00:30:14;2.15;;;0.77;;
48765;SDS011;34570;51.836;5.002;2022-09-02T00:32:40;4.88;;;1.10;;
48765;SDS011;34570;51.836;5.002;2022-09-02T00:35:06;1.77;;;1.00;;
48765;SDS011;34570;51.836;5.002;2022-09-02T00:37:32;3.75;;;1.23;;
48765;SDS011;34570;51.836;5.002;2022-09-02T00:39:57;1.92;;;0.80;;
48765;SDS011;34570;51.836;5.002;2022-09-02T00:42:23;7.30;;;0.90;;
48765;SDS011;34570;51.836;5.002;2022-09-02T00:44:49;6.13;;;1.00;;
48765;SDS011;34570;51.836;5.002;2022-09-02T00:47:14;2.95;;;0.90;;
48765;SDS011;34570;51.836;5.002;2022-09-02T00:49:41;3.35;;;0.98;;
48765;SDS011;34570;51.836;5.002;2022-09-02T00:52:18;2.42;;;1.05;;
48765;SDS011;34570;51.836;5.002;2022-09-02T00:54:53;2.22;;;0.98;;
48765;SDS011;34570;51.836;5.002;2022-09-02T00:57:21;1.98;;;0.80;;
48765;SDS011;34570;51.836;5.002;2022-09-02T01:00:22;3.10;;;0.93;;
48765;SDS011;34570;51.836;5.002;2022-09-02T01:02:43;6.40;;;0.95;;
48765;SDS011;34570;51.836;5.002;2022-09-02T01:05:11;5.07;;;1.15;;
48765;SDS011;34570;51.836;5.002;2022-09-02T01:07:38;4.47;;;0.80;;
48765;SDS011;34570;51.836;5.002;2022-09-02T01:10:09;1.70;;;0.80;;
48765;SDS011;34570;51.836;5.002;2022-09-02T01:12:35;2.03;;;0.93;;
48765;SDS011;34570;51.836;5.002;2022-09-02T01:15:01;3.63;;;0.70;;
48765;SDS011;34570;51.836;5.002;2022-09-02T01:17:28;2.97;;;0.80;;
48765;SDS011;34570;51.836;5.002;2022-09-02T01:19:55;2.88;;;0.95;;
48765;SDS011;34570;51.836;5.002;2022-09-02T01:22:25;3.47;;;0.95;;
48765;SDS011;34570;51.836;5.002;2022-09-02T01:24:51;3.20;;;0.70;;
48765;SDS011;34570;51.836;5.002;2022-09-02T01:27:20;1.40;;;0.80;;
48765;SDS011;34570;51.836;5.002;2022-09-02T01:29:49;3.67;;;0.90;;
48765;SDS011;34570;51.836;5.002;2022-09-02T01:32:15;1.42;;;0.80;;
48765;SDS011;34570;51.836;5.002;2022-09-02T01:34:40;2.35;;;0.90;;
48765;SDS011;34570;51.836;5.002;2022-09-02T01:37:06;4.43;;;0.75;;
48765;SDS011;34570;51.836;5.002;2022-09-02T01:39:31;2.08;;;0.88;;
48765;SDS011;34570;51.836;5.002;2022-09-02T01:41:57;7.53;;;0.93;;
48765;SDS011;34570;51.836;5.002;2022-09-02T01:44:24;4.22;;;1.00;;
48765;SDS011;34570;51.836;5.002;2022-09-02T01:46:52;3.70;;;0.80;;
48765;SDS011;34570;51.836;5.002;2022-09-02T01:49:18;2.08;;;0.90;;
48765;SDS011;34570;51.836;5.002;2022-09-02T01:51:43;3.60;;;1.23;;
48765;SDS011;34570;51.836;5.002;2022-09-02T01:54:09;1.58;;;0.90;;
48765;SDS011;34570;51.836;5.002;2022-09-02T01:56:35;2.17;;;1.10;;
48765;SDS011;34570;51.836;5.002;2022-09-02T01:59:01;2.83;;;1.10;;
48765;SDS011;34570;51.836;5.002;2022-09-02T02:01:27;5.10;;;0.93;;
48765;SDS011;34570;51.836;5.002;2022-09-02T02:03:53;3.15;;;1.13;;
48765;SDS011;34570;51.836;5.002;2022-09-02T02:06:21;4.65;;;0.90;;
48765;SDS011;34570;51.836;5.002;2022-09-02T02:08:47;3.35;;;1.00;;
48765;SDS011;34570;51.836;5.002;2022-09-02T02:11:20;1.95;;;1.13;;
48765;SDS011;34570;51.836;5.002;2022-09-02T02:13:50;2.17;;;1.17;;
48765;SDS011;34570;51.836;5.002;2022-09-02T02:16:19;3.55;;;1.00;;
48765;SDS011;34570;51.836;5.002;2022-09-02T02:18:45;4.28;;;1.10;;
48765;SDS011;34570;51.836;5.002;2022-09-02T02:21:11;3.53;;;1.17;;
48765;SDS011;34570;51.836;5.002;2022-09-02T02:23:36;1.75;;;1.13;;
48765;SDS011;34570;51.836;5.002;2022-09-02T02:26:02;1.77;;;1.10;;
48765;SDS011;34570;51.836;5.002;2022-09-02T02:28:28;7.32;;;1.20;;
48765;SDS011;34570;51.836;5.002;2022-09-02T02:30:55;3.92;;;1.45;;
48765;SDS011;34570;51.836;5.002;2022-09-02T02:33:20;2.22;;;1.20;;
48765;SDS011;34570;51.836;5.002;2022-09-02T02:35:46;3.03;;;1.10;;
48765;SDS011;34570;51.836;5.002;2022-09-02T02:38:11;2.25;;;1.42;;
48765;SDS011;34570;51.836;5.002;2022-09-02T02:40:37;2.03;;;1.10;;
48765;SDS011;34570;51.836;5.002;2022-09-02T02:43:03;3.05;;;1.30;;
48765;SDS011;34570;51.836;5.002;2022-09-02T02:45:29;5.47;;;1.20;;
48765;SDS011;34570;51.836;5.002;2022-09-02T02:47:55;2.50;;;1.30;;
48765;SDS011;34570;51.836;5.002;2022-09-02T02:50:23;2.42;;;1.10;;
48765;SDS011;34570;51.836;5.002;2022-09-02T02:52:49;2.67;;;1.33;;
48765;SDS011;34570;51.836;5.002;2022-09-02T02:55:16;6.35;;;1.20;;
48765;SDS011;34570;51.836;5.002;2022-09-02T02:57:42;3.25;;;1.10;;
48765;SDS011;34570;51.836;5.002;2022-09-02T03:00:11;2.40;;;1.27;;
48765;SDS011;34570;51.836;5.002;2022-09-02T03:02:37;5.32;;;1.17;;
48765;SDS011;34570;51.836;5.002;2022-09-02T03:05:04;2.85;;;1.30;;
48765;SDS011;34570;51.836;5.002;2022-09-02T03:07:30;1.90;;;0.95;;
48765;SDS011;34570;51.836;5.002;2022-09-02T03:09:55;1.92;;;1.17;;
48765;SDS011;34570;51.836;5.002;2022-09-02T03:12:22;7.82;;;1.17;;
48765;SDS011;34570;51.836;5.002;2022-09-02T03:14:48;2.72;;;1.08;;
48765;SDS011;34570;51.836;5.002;2022-09-02T03:17:13;2.30;;;1.13;;
48765;SDS011;34570;51.836;5.002;2022-09-02T03:19:39;3.78;;;1.13;;
48765;SDS011;34570;51.836;5.002;2022-09-02T03:22:04;2.28;;;1.08;;
48765;SDS011;34570;51.836;5.002;2022-09-02T03:24:31;2.28;;;0.98;;
48765;SDS011;34570;51.836;5.002;2022-09-02T03:26:56;2.47;;;1.10;;
48765;SDS011;34570;51.836;5.002;2022-09-02T03:29:22;4.55;;;1.10;;
48765;SDS011;34570;51.836;5.002;2022-09-02T03:31:49;2.33;;;1.08;;
48765;SDS011;34570;51.836;5.002;2022-09-02T03:34:15;10.73;;;1.17;;
48765;SDS011;34570;51.836;5.002;2022-09-02T03:36:40;1.77;;;0.77;;
48765;SDS011;34570;51.836;5.002;2022-09-02T03:39:09;3.25;;;1.13;;
48765;SDS011;34570;51.836;5.002;2022-09-02T03:41:35;1.50;;;0.90;;
48765;SDS011;34570;51.836;5.002;2022-09-02T03:44:00;1.90;;;1.10;;
48765;SDS011;34570;51.836;5.002;2022-09-02T03:46:27;3.00;;;1.08;;
48765;SDS011;34570;51.836;5.002;2022-09-02T03:48:54;2.38;;;1.00;;
48765;SDS011;34570;51.836;5.002;2022-09-02T03:51:20;3.15;;;1.10;;
48765;SDS011;34570;51.836;5.002;2022-09-02T03:53:46;1.60;;;0.88;;
48765;SDS011;34570;51.836;5.002;2022-09-02T03:56:14;3.58;;;1.20;;
48765;SDS011;34570;51.836;5.002;2022-09-02T03:58:40;1.77;;;1.00;;
48765;SDS011;34570;51.836;5.002;2022-09-02T04:01:06;4.00;;;1.10;;
48765;SDS011;34570;51.836;5.002;2022-09-02T04:03:31;3.95;;;0.98;;
48765;SDS011;34570;51.836;5.002;2022-09-02T04:05:58;2.53;;;0.90;;
48765;SDS011;34570;51.836;5.002;2022-09-02T04:08:26;3.60;;;1.10;;
48765;SDS011;34570;51.836;5.002;2022-09-02T04:10:53;2.85;;;0.90;;
48765;SDS011;34570;51.836;5.002;2022-09-02T04:13:20;3.88;;;1.00;;
48765;SDS011;34570;51.836;5.002;2022-09-02T04:15:46;5.70;;;1.10;;
48765;SDS011;34570;51.836;5.002;2022-09-02T04:18:14;4.20;;;0.90;;
48765;SDS011;34570;51.836;5.002;2022-09-02T04:20:40;1.70;;;1.17;;
48765;SDS011;34570;51.836;5.002;2022-09-02T04:23:08;3.20;;;1.10;;
48765;SDS011;34570;51.836;5.002;2022-09-02T04:25:37;2.40;;;0.98;;
48765;SDS011;34570;51.836;5.002;2022-09-02T04:28:03;3.90;;;1.10;;
48765;SDS011;34570;51.836;5.002;2022-09-02T04:30:28;1.52;;;0.90;;
48765;SDS011;34570;51.836;5.002;2022-09-02T04:32:54;3.85;;;1.20;;
48765;SDS011;34570;51.836;5.002;2022-09-02T04:35:21;3.38;;;1.30;;
48765;SDS011;34570;51.836;5.002;2022-09-02T04:37:46;2.40;;;1.27;;
48765;SDS011;34570;51.836;5.002;2022-09-02T04:40:14;4.90;;;1.15;;
48765;SDS011;34570;51.836;5.002;2022-09-02T04:42:40;2.22;;;1.20;;
48765;SDS011;34570;51.836;5.002;2022-09-02T04:45:07;2.63;;;1.15;;
48765;SDS011;34570;51.836;5.002;2022-09-02T04:47:33;1.98;;;1.10;;
48765;SDS011;34570;51.836;5.002;2022-09-02T04:50:00;6.43;;;1.52;;
48765;SDS011;34570;51.836;5.002;2022-09-02T04:52:27;3.28;;;1.27;;
48765;SDS011;34570;51.836;5.002;2022-09-02T04:54:53;2.90;;;1.58;;
48765;SDS011;34570;51.836;5.002;2022-09-02T04:57:18;7.10;;;1.38;;
48765;SDS011;34570;51.836;5.002;2022-09-02T04:59:44;2.92;;;1.25;;
48765;SDS011;34570;51.836;5.002;2022-09-02T05:02:10;6.28;;;1.50;;
48765;SDS011;34570;51.836;5.002;2022-09-02T05:04:36;3.17;;;1.27;;
48765;SDS011;34570;51.836;5.002;2022-09-02T05:07:05;6.68;;;1.15;;
48765;SDS011;34570;51.836;5.002;2022-09-02T05:09:37;6.35;;;1.40;;
48765;SDS011;34570;51.836;5.002;2022-09-02T05:12:04;5.35;;;1.30;;
48765;SDS011;34570;51.836;5.002;2022-09-02T05:14:39;4.70;;;1.10;;
48765;SDS011;34570;51.836;5.002;2022-09-02T05:17:07;6.53;;;1.10;;
48765;SDS011;34570;51.836;5.002;2022-09-02T05:19:33;3.80;;;1.20;;
48765;SDS011;34570;51.836;5.002;2022-09-02T05:21:59;2.15;;;1.10;;
48765;SDS011;34570;51.836;5.002;2022-09-02T05:24:31;3.20;;;0.90;;
48765;SDS011;34570;51.836;5.002;2022-09-02T05:27:01;2.42;;;1.20;;
48765;SDS011;34570;51.836;5.002;2022-09-02T05:29:29;1.65;;;0.90;;
48765;SDS011;34570;51.836;5.002;2022-09-02T05:31:55;6.78;;;1.48;;
48765;SDS011;34570;51.836;5.002;2022-09-02T05:34:22;3.28;;;1.13;;
48765;SDS011;34570;51.836;5.002;2022-09-02T05:36:49;3.45;;;1.40;;
48765;SDS011;34570;51.836;5.002;2022-09-02T05:39:15;3.90;;;1.10;;
48765;SDS011;34570;51.836;5.002;2022-09-02T05:41:41;4.28;;;1.20;;
48765;SDS011;34570;51.836;5.002;2022-09-02T05:44:08;3.35;;;1.17;;
48765;SDS011;34570;51.836;5.002;2022-09-02T05:46:35;1.77;;;0.90;;
48765;SDS011;34570;51.836;5.002;2022-09-02T05:49:02;2.47;;;1.13;;
48765;SDS011;34570;51.836;5.002;2022-09-02T05:51:51;5.68;;;1.20;;
48765;SDS011;34570;51.836;5.002;2022-09-02T05:56:51;6.22;;;1.40;;
48765;SDS011;34570;51.836;5.002;2022-09-02T05:59:19;4.53;;;1.27;;
48765;SDS011;34570;51.836;5.002;2022-09-02T06:01:45;8.82;;;1.40;;
48765;SDS011;34570;51.836;5.002;2022-09-02T06:04:11;2.58;;;1.27;;
48765;SDS011;34570;51.836;5.002;2022-09-02T06:06:37;1.92;;;1.20;;
48765;SDS011;34570;51.836;5.002;2022-09-02T06:09:05;3.58;;;1.50;;
48765;SDS011;34570;51.836;5.002;2022-09-02T06:11:33;5.13;;;1.60;;
48765;SDS011;34570;51.836;5.002;2022-09-02T06:13:59;5.45;;;1.60;;
48765;SDS011;34570;51.836;5.002;2022-09-02T06:16:25;8.35;;;1.60;;
48765;SDS011;34570;51.836;5.002;2022-09-02T06:18:51;3.47;;;1.50;;
48765;SDS011;34570;51.836;5.002;2022-09-02T06:21:17;3.33;;;1.30;;
48765;SDS011;34570;51.836;5.002;2022-09-02T06:23:47;2.65;;;1.50;;
48765;SDS011;34570;51.836;5.002;2022-09-02T06:26:13;3.72;;;1.60;;
48765;SDS011;34570;51.836;5.002;2022-09-02T06:28:39;2.80;;;1.42;;
48765;SDS011;34570;51.836;5.002;2022-09-02T06:31:08;10.13;;;2.10;;
48765;SDS011;34570;51.836;5.002;2022-09-02T06:33:35;8.40;;;1.67;;
48765;SDS011;34570;51.836;5.002;2022-09-02T06:36:00;5.90;;;1.88;;
48765;SDS011;34570;51.836;5.002;2022-09-02T06:38:26;4.40;;;1.70;;
48765;SDS011;34570;51.836;5.002;2022-09-02T06:40:53;5.82;;;2.50;;
48765;SDS011;34570;51.836;5.002;2022-09-02T06:43:40;3.97;;;1.75;;
48765;SDS011;34570;51.836;5.002;2022-09-02T06:46:15;3.20;;;1.95;;
48765;SDS011;34570;51.836;5.002;2022-09-02T06:48:41;3.03;;;1.70;;
48765;SDS011;34570;51.836;5.002;2022-09-02T06:51:07;7.93;;;2.00;;
48765;SDS011;34570;51.836;5.002;2022-09-02T06:53:33;5.30;;;2.35;;
48765;SDS011;34570;51.836;5.002;2022-09-02T06:55:58;11.18;;;2.28;;
48765;SDS011;34570;51.836;5.002;2022-09-02T06:58:24;2.88;;;1.80;;
48765;SDS011;34570;51.836;5.002;2022-09-02T07:00:50;6.75;;;2.25;;
48765;SDS011;34570;51.836;5.002;2022-09-02T07:03:15;4.35;;;2.17;;
48765;SDS011;34570;51.836;5.002;2022-09-02T07:06:05;8.20;;;2.13;;
48765;SDS011;34570;51.836;5.002;2022-09-02T07:08:35;6.93;;;2.28;;
48765;SDS011;34570;51.836;5.002;2022-09-02T07:11:01;6.45;;;2.03;;
48765;SDS011;34570;51.836;5.002;2022-09-02T07:13:26;5.22;;;2.05;;
48765;SDS011;34570;51.836;5.002;2022-09-02T07:15:53;6.55;;;2.30;;
48765;SDS011;34570;51.836;5.002;2022-09-02T07:18:18;7.45;;;2.45;;
48765;SDS011;34570;51.836;5.002;2022-09-02T07:20:45;7.10;;;1.77;;
48765;SDS011;34570;51.836;5.002;2022-09-02T07:23:11;3.75;;;1.85;;
48765;SDS011;34570;51.836;5.002;2022-09-02T07:25:37;4.32;;;2.28;;
48765;SDS011;34570;51.836;5.002;2022-09-02T07:28:06;8.50;;;2.38;;
48765;SDS011;34570;51.836;5.002;2022-09-02T07:30:34;3.88;;;1.90;;
48765;SDS011;34570;51.836;5.002;2022-09-02T07:33:08;5.72;;;1.83;;
48765;SDS011;34570;51.836;5.002;2022-09-02T07:35:34;8.43;;;1.70;;
48765;SDS011;34570;51.836;5.002;2022-09-02T07:38:01;3.60;;;1.48;;
48765;SDS011;34570;51.836;5.002;2022-09-02T07:40:28;7.07;;;1.60;;
48765;SDS011;34570;51.836;5.002;2022-09-02T07:42:55;7.05;;;1.50;;
48765;SDS011;34570;51.836;5.002;2022-09-02T07:45:21;11.30;;;1.85;;
48765;SDS011;34570;51.836;5.002;2022-09-02T07:47:47;9.90;;;1.70;;
48765;SDS011;34570;51.836;5.002;2022-09-02T07:50:14;6.00;;;1.85;;
48765;SDS011;34570;51.836;5.002;2022-09-02T07:52:40;3.35;;;2.05;;
48765;SDS011;34570;51.836;5.002;2022-09-02T07:55:06;2.20;;;1.42;;
48765;SDS011;34570;51.836;5.002;2022-09-02T07:57:32;10.20;;;1.85;;
48765;SDS011;34570;51.836;5.002;2022-09-02T07:59:57;3.03;;;1.40;;
48765;SDS011;34570;51.836;5.002;2022-09-02T08:02:23;9.88;;;2.45;;
48765;SDS011;34570;51.836;5.002;2022-09-02T08:04:50;11.27;;;2.53;;
48765;SDS011;34570;51.836;5.002;2022-09-02T08:07:17;11.40;;;2.38;;
48765;SDS011;34570;51.836;5.002;2022-09-02T08:09:49;11.88;;;2.58;;
48765;SDS011;34570;51.836;5.002;2022-09-02T08:12:14;21.30;;;3.75;;
48765;SDS011;34570;51.836;5.002;2022-09-02T08:14:39;20.55;;;2.88;;
48765;SDS011;34570;51.836;5.002;2022-09-02T08:17:05;8.07;;;2.13;;
48765;SDS011;34570;51.836;5.002;2022-09-02T08:19:30;20.88;;;3.30;;
48765;SDS011;34570;51.836;5.002;2022-09-02T08:22:01;18.65;;;2.60;;
48765;SDS011;34570;51.836;5.002;2022-09-02T08:24:29;17.02;;;2.80;;
48765;SDS011;34570;51.836;5.002;2022-09-02T08:26:54;7.43;;;2.20;;
48765;SDS011;34570;51.836;5.002;2022-09-02T08:29:19;6.03;;;2.38;;
48765;SDS011;34570;51.836;5.002;2022-09-02T08:31:45;29.30;;;4.00;;
48765;SDS011;34570;51.836;5.002;2022-09-02T08:34:10;3.38;;;1.90;;
48765;SDS011;34570;51.836;5.002;2022-09-02T08:36:36;8.13;;;2.53;;
48765;SDS011;34570;51.836;5.002;2022-09-02T08:39:03;8.38;;;2.60;;
48765;SDS011;34570;51.836;5.002;2022-09-02T08:41:41;15.00;;;2.65;;
48765;SDS011;34570;51.836;5.002;2022-09-02T08:44:11;4.25;;;1.73;;
48765;SDS011;34570;51.836;5.002;2022-09-02T08:46:39;4.53;;;2.00;;
48765;SDS011;34570;51.836;5.002;2022-09-02T08:49:13;3.25;;;1.90;;
48765;SDS011;34570;51.836;5.002;2022-09-02T08:51:48;7.95;;;2.50;;
48765;SDS011;34570;51.836;5.002;2022-09-02T08:56:40;4.45;;;1.98;;
48765;SDS011;34570;51.836;5.002;2022-09-02T08:59:06;6.80;;;2.30;;
48765;SDS011;34570;51.836;5.002;2022-09-02T09:06:40;4.53;;;2.03;;
48765;SDS011;34570;51.836;5.002;2022-09-02T09:09:12;4.20;;;2.10;;
48765;SDS011;34570;51.836;5.002;2022-09-02T09:16:55;5.95;;;2.08;;
48765;SDS011;34570;51.836;5.002;2022-09-02T09:21:50;6.10;;;2.22;;
48765;SDS011;34570;51.836;5.002;2022-09-02T09:24:25;4.63;;;2.35;;
48765;SDS011;34570;51.836;5.002;2022-09-02T09:26:52;4.28;;;2.20;;
48765;SDS011;34570;51.836;5.002;2022-09-02T09:29:19;8.18;;;2.63;;
48765;SDS011;34570;51.836;5.002;2022-09-02T09:31:45;4.93;;;2.63;;
48765;SDS011;34570;51.836;5.002;2022-09-02T09:34:13;7.20;;;2.70;;
48765;SDS011;34570;51.836;5.002;2022-09-02T09:39:17;9.38;;;2.20;;
48765;SDS011;34570;51.836;5.002;2022-09-02T09:41:43;5.70;;;2.60;;
48765;SDS011;34570;51.836;5.002;2022-09-02T09:44:09;6.15;;;2.42;;
48765;SDS011;34570;51.836;5.002;2022-09-02T09:46:35;5.30;;;2.45;;
48765;SDS011;34570;51.836;5.002;2022-09-02T09:49:00;9.80;;;2.92;;
48765;SDS011;34570;51.836;5.002;2022-09-02T09:51:26;6.93;;;3.03;;
48765;SDS011;34570;51.836;5.002;2022-09-02T09:53:52;11.20;;;2.63;;
48765;SDS011;34570;51.836;5.002;2022-09-02T09:56:37;22.38;;;2.78;;
48765;SDS011;34570;51.836;5.002;2022-09-02T09:59:04;4.45;;;2.72;;
48765;SDS011;34570;51.836;5.002;2022-09-02T10:01:31;11.20;;;2.72;;
48765;SDS011;34570;51.836;5.002;2022-09-02T10:04:07;9.85;;;3.03;;
48765;SDS011;34570;51.836;5.002;2022-09-02T10:09:06;4.97;;;2.88;;
48765;SDS011;34570;51.836;5.002;2022-09-02T10:11:53;4.70;;;2.60;;
48765;SDS011;34570;51.836;5.002;2022-09-02T10:14:20;4.78;;;2.65;;
48765;SDS011;34570;51.836;5.002;2022-09-02T10:19:35;5.88;;;2.72;;
48765;SDS011;34570;51.836;5.002;2022-09-02T10:26:57;6.13;;;2.63;;
48765;SDS011;34570;51.836;5.002;2022-09-02T10:29:38;7.30;;;2.45;;
48765;SDS011;34570;51.836;5.002;2022-09-02T10:37:44;7.68;;;3.13;;
48765;SDS011;34570;51.836;5.002;2022-09-02T10:40:16;7.95;;;2.95;;
48765;SDS011;34570;51.836;5.002;2022-09-02T10:42:58;10.82;;;2.88;;
48765;SDS011;34570;51.836;5.002;2022-09-02T10:56:03;22.52;;;2.80;;
48765;SDS011;34570;51.836;5.002;2022-09-02T11:00:55;5.25;;;2.83;;
48765;SDS011;34570;51.836;5.002;2022-09-02T11:03:27;5.55;;;2.70;;
48765;SDS011;34570;51.836;5.002;2022-09-02T11:24:17;6.82;;;2.33;;
48765;SDS011;34570;51.836;5.002;2022-09-02T11:29:13;6.43;;;2.00;;
48765;SDS011;34570;51.836;5.002;2022-09-02T11:31:42;9.55;;;2.38;;
48765;SDS011;34570;51.836;5.002;2022-09-02T11:34:29;6.65;;;2.28;;
48765;SDS011;34570;51.836;5.002;2022-09-02T11:37:06;5.63;;;2.28;;
48765;SDS011;34570;51.836;5.002;2022-09-02T11:42:23;6.13;;;1.75;;
48765;SDS011;34570;51.836;5.002;2022-09-02T11:44:59;4.68;;;2.15;;
48765;SDS011;34570;51.836;5.002;2022-09-02T11:55:09;7.32;;;1.95;;
48765;SDS011;34570;51.836;5.002;2022-09-02T11:57:38;3.17;;;2.13;;
48765;SDS011;34570;51.836;5.002;2022-09-02T12:00:06;4.07;;;2.22;;
48765;SDS011;34570;51.836;5.002;2022-09-02T12:02:44;3.60;;;2.20;;
48765;SDS011;34570;51.836;5.002;2022-09-02T12:06:03;4.35;;;2.25;;
48765;SDS011;34570;51.836;5.002;2022-09-02T12:07:58;5.45;;;2.40;;
48765;SDS011;34570;51.836;5.002;2022-09-02T12:18:37;3.45;;;1.45;;
48765;SDS011;34570;51.836;5.002;2022-09-02T12:21:04;2.22;;;1.65;;
48765;SDS011;34570;51.836;5.002;2022-09-02T12:26:15;6.53;;;1.97;;
48765;SDS011;34570;51.836;5.002;2022-09-02T12:28:43;2.65;;;1.40;;
48765;SDS011;34570;51.836;5.002;2022-09-02T12:31:55;8.20;;;1.30;;
48765;SDS011;34570;51.836;5.002;2022-09-02T12:33:56;2.10;;;1.23;;
48765;SDS011;34570;51.836;5.002;2022-09-02T12:41:45;2.58;;;1.25;;
48765;SDS011;34570;51.836;5.002;2022-09-02T12:44:23;3.60;;;1.15;;
48765;SDS011;34570;51.836;5.002;2022-09-02T12:49:28;3.05;;;1.30;;
48765;SDS011;34570;51.836;5.002;2022-09-02T12:51:59;1.50;;;1.00;;
48765;SDS011;34570;51.836;5.002;2022-09-02T12:57:01;1.73;;;1.02;;
48765;SDS011;34570;51.836;5.002;2022-09-02T12:59:34;2.28;;;1.23;;
48765;SDS011;34570;51.836;5.002;2022-09-02T13:02:51;3.90;;;1.45;;
48765;SDS011;34570;51.836;5.002;2022-09-02T13:13:30;4.07;;;0.93;;
48765;SDS011;34570;51.836;5.002;2022-09-02T13:15:26;4.30;;;1.20;;
48765;SDS011;34570;51.836;5.002;2022-09-02T13:30:55;4.40;;;1.17;;
48765;SDS011;34570;51.836;5.002;2022-09-02T13:33:25;3.90;;;1.30;;
48765;SDS011;34570;51.836;5.002;2022-09-02T13:35:52;6.28;;;1.25;;
48765;SDS011;34570;51.836;5.002;2022-09-02T13:38:21;4.90;;;1.40;;
48765;SDS011;34570;51.836;5.002;2022-09-02T13:40:47;3.25;;;1.20;;
48765;SDS011;34570;51.836;5.002;2022-09-02T13:45:38;5.55;;;1.17;;
48765;SDS011;34570;51.836;5.002;2022-09-02T13:50:35;3.47;;;1.25;;
48765;SDS011;34570;51.836;5.002;2022-09-02T13:53:02;5.80;;;1.15;;
48765;SDS011;34570;51.836;5.002;2022-09-02T13:55:28;2.78;;;1.00;;
48765;SDS011;34570;51.836;5.002;2022-09-02T14:00:37;4.38;;;1.17;;
48765;SDS011;34570;51.836;5.002;2022-09-02T14:03:07;3.05;;;1.10;;
48765;SDS011;34570;51.836;5.002;2022-09-02T14:05:35;2.38;;;1.30;;
48765;SDS011;34570;51.836;5.002;2022-09-02T14:08:02;2.35;;;1.17;;
48765;SDS011;34570;51.836;5.002;2022-09-02T14:10:29;2.97;;;1.13;;
48765;SDS011;34570;51.836;5.002;2022-09-02T14:12:55;1.73;;;1.20;;
48765;SDS011;34570;51.836;5.002;2022-09-02T14:15:26;3.58;;;1.45;;
48765;SDS011;34570;51.836;5.002;2022-09-02T14:20:39;3.23;;;1.40;;
48765;SDS011;34570;51.836;5.002;2022-09-02T14:23:16;4.32;;;1.30;;
48765;SDS011;34570;51.836;5.002;2022-09-02T14:25:48;3.55;;;1.20;;
48765;SDS011;34570;51.836;5.002;2022-09-02T14:28:17;2.17;;;1.10;;
48765;SDS011;34570;51.836;5.002;2022-09-02T14:30:52;2.88;;;1.20;;
48765;SDS011;34570;51.836;5.002;2022-09-02T14:36:00;3.20;;;1.10;;
48765;SDS011;34570;51.836;5.002;2022-09-02T14:38:27;2.80;;;1.20;;
48765;SDS011;34570;51.836;5.002;2022-09-02T14:41:03;3.55;;;1.10;;
48765;SDS011;34570;51.836;5.002;2022-09-02T14:43:33;3.45;;;1.10;;
48765;SDS011;34570;51.836;5.002;2022-09-02T14:46:03;3.45;;;1.10;;
48765;SDS011;34570;51.836;5.002;2022-09-02T14:48:30;3.25;;;1.30;;
48765;SDS011;34570;51.836;5.002;2022-09-02T14:50:57;3.42;;;1.15;;
48765;SDS011;34570;51.836;5.002;2022-09-02T14:53:23;1.73;;;1.00;;
48765;SDS011;34570;51.836;5.002;2022-09-02T14:58:17;3.60;;;1.50;;
48765;SDS011;34570;51.836;5.002;2022-09-02T15:00:43;3.65;;;1.27;;
48765;SDS011;34570;51.836;5.002;2022-09-02T15:03:11;1.65;;;1.17;;
48765;SDS011;34570;51.836;5.002;2022-09-02T15:05:37;2.95;;;1.27;;
48765;SDS011;34570;51.836;5.002;2022-09-02T15:08:03;2.90;;;1.02;;
48765;SDS011;34570;51.836;5.002;2022-09-02T15:10:28;4.18;;;1.20;;
48765;SDS011;34570;51.836;5.002;2022-09-02T15:12:56;5.25;;;1.40;;
48765;SDS011;34570;51.836;5.002;2022-09-02T15:15:22;5.22;;;1.10;;
48765;SDS011;34570;51.836;5.002;2022-09-02T15:17:48;2.10;;;1.00;;
48765;SDS011;34570;51.836;5.002;2022-09-02T15:20:14;7.60;;;1.20;;
48765;SDS011;34570;51.836;5.002;2022-09-02T15:22:39;4.25;;;1.30;;
48765;SDS011;34570;51.836;5.002;2022-09-02T15:25:05;7.22;;;0.98;;
48765;SDS011;34570;51.836;5.002;2022-09-02T15:27:32;2.00;;;1.10;;
48765;SDS011;34570;51.836;5.002;2022-09-02T15:29:59;1.80;;;1.15;;
48765;SDS011;34570;51.836;5.002;2022-09-02T15:32:24;7.05;;;0.95;;
48765;SDS011;34570;51.836;5.002;2022-09-02T15:34:51;9.57;;;1.15;;
48765;SDS011;34570;51.836;5.002;2022-09-02T15:37:16;2.15;;;0.90;;
48765;SDS011;34570;51.836;5.002;2022-09-02T15:39:42;2.33;;;1.13;;
48765;SDS011;34570;51.836;5.002;2022-09-02T15:42:07;2.40;;;1.25;;
48765;SDS011;34570;51.836;5.002;2022-09-02T15:44:33;4.82;;;1.00;;
48765;SDS011;34570;51.836;5.002;2022-09-02T15:46:58;1.75;;;1.10;;
48765;SDS011;34570;51.836;5.002;2022-09-02T15:49:24;1.60;;;1.10;;
48765;SDS011;34570;51.836;5.002;2022-09-02T15:51:50;5.13;;;1.10;;
48765;SDS011;34570;51.836;5.002;2022-09-02T15:54:17;1.95;;;1.02;;
48765;SDS011;34570;51.836;5.002;2022-09-02T15:56:43;1.65;;;1.10;;
48765;SDS011;34570;51.836;5.002;2022-09-02T15:59:14;4.93;;;1.00;;
48765;SDS011;34570;51.836;5.002;2022-09-02T16:01:40;2.05;;;1.00;;
48765;SDS011;34570;51.836;5.002;2022-09-02T16:04:08;4.20;;;1.00;;
48765;SDS011;34570;51.836;5.002;2022-09-02T16:06:34;2.83;;;1.33;;
48765;SDS011;34570;51.836;5.002;2022-09-02T16:09:01;4.75;;;1.13;;
48765;SDS011;34570;51.836;5.002;2022-09-02T16:11:26;6.40;;;1.00;;
48765;SDS011;34570;51.836;5.002;2022-09-02T16:13:52;4.20;;;0.95;;
48765;SDS011;34570;51.836;5.002;2022-09-02T16:16:18;3.75;;;0.95;;
48765;SDS011;34570;51.836;5.002;2022-09-02T16:18:43;2.67;;;1.10;;
48765;SDS011;34570;51.836;5.002;2022-09-02T16:21:13;2.40;;;1.00;;
48765;SDS011;34570;51.836;5.002;2022-09-02T16:23:38;2.15;;;1.13;;
48765;SDS011;34570;51.836;5.002;2022-09-02T16:28:44;3.28;;;1.05;;
48765;SDS011;34570;51.836;5.002;2022-09-02T16:31:11;3.08;;;0.90;;
48765;SDS011;34570;51.836;5.002;2022-09-02T16:33:37;2.20;;;1.00;;
48765;SDS011;34570;51.836;5.002;2022-09-02T16:36:03;4.00;;;1.20;;
48765;SDS011;34570;51.836;5.002;2022-09-02T16:38:28;4.47;;;1.25;;
48765;SDS011;34570;51.836;5.002;2022-09-02T16:40:54;1.88;;;1.00;;
48765;SDS011;34570;51.836;5.002;2022-09-02T16:43:20;2.88;;;1.23;;
48765;SDS011;34570;51.836;5.002;2022-09-02T16:45:46;2.20;;;1.13;;
48765;SDS011;34570;51.836;5.002;2022-09-02T16:48:12;4.05;;;1.30;;
48765;SDS011;34570;51.836;5.002;2022-09-02T16:50:37;5.22;;;1.63;;
48765;SDS011;34570;51.836;5.002;2022-09-02T16:53:03;5.38;;;1.60;;
48765;SDS011;34570;51.836;5.002;2022-09-02T16:55:28;3.17;;;1.50;;
48765;SDS011;34570;51.836;5.002;2022-09-02T16:57:55;7.95;;;3.25;;
48765;SDS011;34570;51.836;5.002;2022-09-02T17:00:20;5.25;;;3.47;;
48765;SDS011;34570;51.836;5.002;2022-09-02T17:02:47;6.15;;;1.50;;
48765;SDS011;34570;51.836;5.002;2022-09-02T17:05:13;6.38;;;2.33;;
48765;SDS011;34570;51.836;5.002;2022-09-02T17:07:41;3.78;;;1.05;;
48765;SDS011;34570;51.836;5.002;2022-09-02T17:10:07;3.58;;;1.05;;
48765;SDS011;34570;51.836;5.002;2022-09-02T17:12:33;4.53;;;1.13;;